createdAt,value
2023-01-12T00:01:28.483Z,99083.06
2023-01-12T00:03:56.197Z,99081.22
2023-01-12T00:06:24.135Z,99075.53
2023-01-12T00:08:52.152Z,99078.03
2023-01-12T00:11:20.975Z,99079.72
2023-01-12T00:13:48.464Z,99081.94
2023-01-12T00:16:37.962Z,99081.94
2023-01-12T00:19:11.337Z,99087.94
2023-01-12T00:22:00.354Z,99090.44
2023-01-12T00:24:34.498Z,99092.06
2023-01-12T00:27:04.173Z,99077.06
2023-01-12T00:29:31.640Z,99080.81
2023-01-12T00:32:00.737Z,99075.34
2023-01-12T00:34:29.661Z,99078.16
2023-01-12T00:36:58.234Z,99089.09
2023-01-12T00:39:25.282Z,99092.28
2023-01-12T00:42:11.110Z,99085.97
2023-01-12T00:44:56.957Z,99089.62
2023-01-12T00:47:24.194Z,99084.13
2023-01-12T00:49:51.745Z,99078.06
2023-01-12T00:52:35.502Z,99087.31
2023-01-12T00:55:02.883Z,99083.31
2023-01-12T00:57:29.911Z,99081.13
2023-01-12T00:59:59.253Z,99086.78
2023-01-12T01:02:28.411Z,99094.22
2023-01-12T01:04:55.739Z,99095.91
2023-01-12T01:07:22.762Z,99091.31
2023-01-12T01:09:50.691Z,99096.25
2023-01-12T01:12:19.157Z,99099.53
2023-01-12T01:14:48.070Z,99102.78
2023-01-12T01:17:15.633Z,99105.97
2023-01-12T01:19:43.671Z,99104.97
2023-01-12T01:22:12.482Z,99108.31
2023-01-12T01:24:40.704Z,99101.94
2023-01-12T01:27:07.747Z,99109.81
2023-01-12T01:29:34.743Z,99114.81
2023-01-12T01:32:02.095Z,99115.66
2023-01-12T01:34:29.088Z,99119.75
2023-01-12T01:36:56.102Z,99126.03
2023-01-12T01:39:23.435Z,99116.81
2023-01-12T01:41:50.453Z,99121.91
2023-01-12T01:44:29.345Z,99124.50
2023-01-12T01:47:06.912Z,99132.44
2023-01-12T01:49:44.018Z,99126.69
2023-01-12T01:52:21.635Z,99121.34
2023-01-12T01:54:55.229Z,99117.47
2023-01-12T01:57:26.203Z,99116.81
2023-01-12T01:59:55.118Z,99115.81
2023-01-12T02:02:23.545Z,99117.81
2023-01-12T02:04:50.935Z,99118.75
2023-01-12T02:07:18.316Z,99123.69
2023-01-12T02:09:45.312Z,99130.25
2023-01-12T02:12:31.470Z,99117.97
2023-01-12T02:15:17.414Z,99119.94
2023-01-12T02:17:58.883Z,99123.31
2023-01-12T02:20:35.173Z,99131.25
2023-01-12T02:23:21.018Z,99137.47
2023-01-12T02:26:25.198Z,99130.47
2023-01-12T02:28:52.767Z,99130.78
2023-01-12T02:31:41.194Z,99129.56
2023-01-12T02:34:47.282Z,99113.66
2023-01-12T02:37:39.379Z,99125.91
2023-01-12T02:40:11.137Z,99123.00
2023-01-12T02:42:47.503Z,99126.91
2023-01-12T02:45:34.630Z,99126.75
2023-01-12T02:48:08.083Z,99128.59
2023-01-12T02:51:12.877Z,99134.31
2023-01-12T02:53:43.231Z,99121.72
2023-01-12T02:56:12.713Z,99130.34
2023-01-12T02:58:46.827Z,99116.37
2023-01-12T03:01:14.998Z,99122.41
2023-01-12T03:03:42.746Z,99126.31
2023-01-12T03:06:19.050Z,99116.34
2023-01-12T03:08:48.075Z,99122.34
2023-01-12T03:11:20.800Z,99121.50
2023-01-12T03:13:56.271Z,99125.41
2023-01-12T03:16:27.228Z,99128.31
2023-01-12T03:18:59.057Z,99115.38
2023-01-12T03:21:29.760Z,99116.94
2023-01-12T03:24:02.114Z,99110.94
2023-01-12T03:26:30.834Z,99113.03
2023-01-12T03:29:15.447Z,99116.09
2023-01-12T03:31:42.749Z,99115.56
2023-01-12T03:34:10.288Z,99119.38
2023-01-12T03:37:04.917Z,99115.31
2023-01-12T03:40:00.478Z,99118.41
2023-01-12T03:42:36.756Z,99118.91
2023-01-12T03:45:25.355Z,99115.06
2023-01-12T03:48:00.368Z,99104.97
2023-01-12T03:50:34.349Z,99100.63
2023-01-12T03:53:02.439Z,99097.03
2023-01-12T03:55:31.102Z,99104.47
2023-01-12T03:57:58.674Z,99105.22
2023-01-12T04:00:27.290Z,99110.06
2023-01-12T04:03:24.637Z,99121.03
2023-01-12T04:05:51.808Z,99124.37
2023-01-12T04:08:19.148Z,99123.87
2023-01-12T04:10:46.150Z,99124.37
2023-01-12T04:13:13.361Z,99107.63
2023-01-12T04:15:42.635Z,99108.53
2023-01-12T04:18:10.741Z,99102.78
2023-01-12T04:20:38.578Z,99107.78
2023-01-12T04:23:09.532Z,99109.50
2023-01-12T04:25:36.687Z,99109.00
2023-01-12T04:28:07.154Z,99106.91
2023-01-12T04:30:34.683Z,99106.44
2023-01-12T04:33:08.028Z,99104.09
2023-01-12T04:35:36.275Z,99114.34
2023-01-12T04:38:07.381Z,99118.97
2023-01-12T04:40:34.459Z,99112.88
2023-01-12T04:43:01.792Z,99105.47
2023-01-12T04:45:31.237Z,99113.16
2023-01-12T04:48:09.518Z,99115.47
2023-01-12T04:50:38.165Z,99113.31
2023-01-12T04:53:07.215Z,99117.16
2023-01-12T04:55:36.806Z,99117.34
2023-01-12T04:58:04.482Z,99120.94
2023-01-12T05:00:31.705Z,99113.62
2023-01-12T05:03:02.154Z,99121.69
2023-01-12T05:05:31.072Z,99117.03
2023-01-12T05:08:21.196Z,99117.03
2023-01-12T05:10:52.860Z,99113.62
2023-01-12T05:13:20.354Z,99123.06
2023-01-12T05:15:47.463Z,99121.53
2023-01-12T05:18:15.560Z,99125.19
2023-01-12T05:20:42.723Z,99133.84
2023-01-12T05:23:09.808Z,99138.91
2023-01-12T05:25:37.193Z,99133.72
2023-01-12T05:28:04.506Z,99139.97
2023-01-12T05:30:32.198Z,99138.75
2023-01-12T05:32:59.653Z,99131.87
2023-01-12T05:35:26.751Z,99127.47
2023-01-12T05:37:56.712Z,99128.09
2023-01-12T05:40:24.622Z,99127.75
2023-01-12T05:43:10.459Z,99126.59
2023-01-12T05:45:38.033Z,99122.28
2023-01-12T05:48:05.326Z,99129.50
2023-01-12T05:50:32.572Z,99129.56
2023-01-12T05:53:08.815Z,99128.50
2023-01-12T05:55:37.459Z,99133.84
2023-01-12T05:58:04.754Z,99132.00
2023-01-12T06:00:32.135Z,99139.78
2023-01-12T06:02:59.476Z,99136.78
2023-01-12T06:05:26.660Z,99130.88
2023-01-12T06:07:53.770Z,99128.44
2023-01-12T06:10:21.162Z,99129.78
2023-01-12T06:13:08.908Z,99129.88
2023-01-12T06:15:36.338Z,99128.94
2023-01-12T06:18:03.592Z,99119.06
2023-01-12T06:20:30.718Z,99120.56
2023-01-12T06:23:02.339Z,99131.72
2023-01-12T06:25:30.131Z,99133.72
2023-01-12T06:27:57.750Z,99138.91
2023-01-12T06:30:25.095Z,99139.56
2023-01-12T06:32:52.218Z,99149.09
2023-01-12T06:35:20.034Z,99157.44
2023-01-12T06:37:47.363Z,99153.78
2023-01-12T06:40:15.566Z,99164.72
2023-01-12T06:42:42.982Z,99168.00
2023-01-12T06:45:10.674Z,99169.00
2023-01-12T06:47:49.315Z,99176.69
2023-01-12T06:50:16.982Z,99177.34
2023-01-12T06:52:44.103Z,99167.31
2023-01-12T06:55:11.386Z,99179.53
2023-01-12T06:57:38.905Z,99183.69
2023-01-12T07:00:06.852Z,99190.38
2023-01-12T07:02:34.474Z,99194.19
2023-01-12T07:05:01.832Z,99184.16
2023-01-12T07:07:28.913Z,99183.31
2023-01-12T07:09:57.009Z,99189.16
2023-01-12T07:12:24.912Z,99194.97
2023-01-12T07:14:53.086Z,99195.88
2023-01-12T07:17:20.151Z,99191.44
2023-01-12T07:19:47.699Z,99179.66
2023-01-12T07:22:14.814Z,99185.87
2023-01-12T07:24:41.945Z,99192.06
2023-01-12T07:27:09.315Z,99195.41
2023-01-12T07:29:36.382Z,99201.84
2023-01-12T07:32:03.869Z,99205.91
2023-01-12T07:34:31.345Z,99208.19
2023-01-12T07:36:58.392Z,99211.28
2023-01-12T07:39:25.867Z,99219.97
2023-01-12T07:42:12.543Z,99228.53
2023-01-12T07:44:40.418Z,99232.19
2023-01-12T07:47:07.849Z,99228.34
2023-01-12T07:49:34.971Z,99240.28
2023-01-12T07:52:02.049Z,99223.72
2023-01-12T07:54:29.505Z,99231.47
2023-01-12T07:56:57.952Z,99229.97
2023-01-12T07:59:25.853Z,99225.16
2023-01-12T08:01:54.576Z,99227.66
2023-01-12T08:04:22.640Z,99231.66
2023-01-12T08:06:49.765Z,99234.25
2023-01-12T08:09:16.921Z,99235.16
2023-01-12T08:11:44.358Z,99236.66
2023-01-12T08:14:16.975Z,99234.97
2023-01-12T08:16:46.549Z,99235.50
2023-01-12T08:19:19.282Z,99238.91
2023-01-12T08:21:52.685Z,99243.19
2023-01-12T08:24:22.123Z,99241.22
2023-01-12T08:26:51.490Z,99243.12
2023-01-12T08:29:30.037Z,99246.22
2023-01-12T08:32:04.850Z,99247.97
2023-01-12T08:34:33.672Z,99241.44
2023-01-12T08:37:05.086Z,99244.34
2023-01-12T08:39:35.197Z,99248.91
2023-01-12T08:42:03.671Z,99255.50
2023-01-12T08:44:35.428Z,99262.72
2023-01-12T08:47:04.526Z,99262.34
2023-01-12T08:49:32.949Z,99257.34
2023-01-12T08:51:59.986Z,99260.59
2023-01-12T08:54:27.458Z,99263.22
2023-01-12T08:56:54.888Z,99251.44
2023-01-12T08:59:23.018Z,99252.47
2023-01-12T09:01:50.417Z,99253.75
2023-01-12T09:04:17.547Z,99260.00
2023-01-12T09:06:45.383Z,99250.53
2023-01-12T09:09:16.841Z,99259.53
2023-01-12T09:11:44.525Z,99260.31
2023-01-12T09:14:12.721Z,99258.69
2023-01-12T09:16:40.535Z,99251.53
2023-01-12T09:19:09.568Z,99253.72
2023-01-12T09:21:38.580Z,99252.34
2023-01-12T09:24:06.462Z,99254.81
2023-01-12T09:26:38.914Z,99254.69
2023-01-12T09:29:07.814Z,99258.59
2023-01-12T09:31:36.147Z,99266.00
2023-01-12T09:34:05.107Z,99263.13
2023-01-12T09:36:34.755Z,99256.84
2023-01-12T09:39:02.117Z,99259.81
2023-01-12T09:41:50.082Z,99259.16
2023-01-12T09:44:56.027Z,99264.16
2023-01-12T09:47:40.675Z,99252.09
2023-01-12T09:50:16.440Z,99259.53
2023-01-12T09:52:57.335Z,99253.47
2023-01-12T09:55:26.485Z,99258.91
2023-01-12T09:58:16.798Z,99248.38
2023-01-12T10:00:44.075Z,99252.72
2023-01-12T10:03:11.365Z,99252.00
2023-01-12T10:05:49.785Z,99250.28
2023-01-12T10:08:43.100Z,99251.66
2023-01-12T10:11:17.656Z,99252.16
2023-01-12T10:14:05.198Z,99246.09
2023-01-12T10:17:13.989Z,99233.94
2023-01-12T10:20:00.024Z,99239.97
2023-01-12T10:22:40.043Z,99237.34
2023-01-12T10:25:15.126Z,99239.44
2023-01-12T10:27:44.467Z,99240.41
2023-01-12T10:30:13.803Z,99236.84
2023-01-12T10:32:42.319Z,99234.13
2023-01-12T10:35:18.097Z,99231.87
2023-01-12T10:37:51.642Z,99230.66
2023-01-12T10:40:26.782Z,99230.81
2023-01-12T10:43:20.009Z,99224.72
2023-01-12T10:46:08.569Z,99225.50
2023-01-12T10:48:36.803Z,99224.19
2023-01-12T10:51:06.275Z,99213.84
2023-01-12T10:53:38.805Z,99221.25
2023-01-12T10:56:36.601Z,99220.44
2023-01-12T10:59:12.814Z,99223.47
2023-01-12T11:02:00.164Z,99221.16
2023-01-12T11:04:29.415Z,99216.25
2023-01-12T11:07:04.957Z,99216.25
2023-01-12T11:09:32.417Z,99209.06
2023-01-12T11:12:01.937Z,99213.00
2023-01-12T11:14:32.189Z,99203.84
2023-01-12T11:17:28.799Z,99204.69
2023-01-12T11:19:57.653Z,99191.34
2023-01-12T11:22:27.891Z,99206.56
2023-01-12T11:25:07.437Z,99203.44
2023-01-12T11:27:49.317Z,99212.19
2023-01-12T11:30:28.238Z,99202.84
2023-01-12T11:33:18.742Z,99198.91
2023-01-12T11:35:53.121Z,99187.41
2023-01-12T11:38:33.682Z,99181.19
2023-01-12T11:41:01.738Z,99180.38
2023-01-12T11:43:55.859Z,99189.53
2023-01-12T11:46:35.947Z,99179.09
2023-01-12T11:49:24.361Z,99176.31
2023-01-12T11:51:56.444Z,99180.38
2023-01-12T11:54:25.382Z,99182.25
2023-01-12T11:56:55.331Z,99179.97
2023-01-12T12:00:01.585Z,99182.03
2023-01-12T12:02:40.702Z,99191.72
2023-01-12T12:05:23.290Z,99182.88
2023-01-12T12:07:53.023Z,99172.78
2023-01-12T12:10:25.461Z,99170.69
2023-01-12T12:13:13.593Z,99168.38
2023-01-12T12:16:15.944Z,99169.13
2023-01-12T12:18:51.209Z,99178.28
2023-01-12T12:21:30.406Z,99173.72
2023-01-12T12:24:09.224Z,99169.75
2023-01-12T12:26:43.447Z,99173.91
2023-01-12T12:29:30.823Z,99170.37
2023-01-12T12:32:11.498Z,99165.16
2023-01-12T12:34:54.962Z,99162.97
2023-01-12T12:37:31.206Z,99164.97
2023-01-12T12:40:04.067Z,99159.12
2023-01-12T12:43:03.626Z,99151.16
2023-01-12T12:45:50.741Z,99156.25
2023-01-12T12:48:50.359Z,99149.22
2023-01-12T12:51:20.344Z,99148.94
2023-01-12T12:53:50.373Z,99143.81
2023-01-12T12:56:20.942Z,99148.00
2023-01-12T12:58:53.748Z,99146.41
2023-01-12T13:01:20.984Z,99148.37
2023-01-12T13:03:52.401Z,99149.72
2023-01-12T13:06:26.483Z,99144.34
2023-01-12T13:09:15.464Z,99146.78
2023-01-12T13:11:53.818Z,99157.16
2023-01-12T13:14:25.247Z,99160.63
2023-01-12T13:16:54.986Z,99142.69
2023-01-12T13:19:41.235Z,99145.19
2023-01-12T13:22:40.700Z,99157.38
2023-01-12T13:25:20.462Z,99151.88
2023-01-12T13:27:59.892Z,99158.94
2023-01-12T13:30:30.168Z,99158.16
2023-01-12T13:33:15.534Z,99155.66
2023-01-12T13:35:46.423Z,99153.06
2023-01-12T13:38:44.547Z,99161.56
2023-01-12T13:41:15.180Z,99159.88
2023-01-12T13:43:48.216Z,99161.44
2023-01-12T13:46:18.060Z,99158.06
2023-01-12T13:48:50.419Z,99157.91
2023-01-12T13:51:20.731Z,99151.62
2023-01-12T13:53:59.341Z,99156.41
2023-01-12T13:56:26.991Z,99152.25
2023-01-12T13:59:02.297Z,99157.47
2023-01-12T14:01:40.409Z,99154.06
2023-01-12T14:04:13.848Z,99153.13
2023-01-12T14:06:56.096Z,99159.88
2023-01-12T14:10:05.413Z,99152.28
2023-01-12T14:12:58.525Z,99152.56
2023-01-12T14:15:52.389Z,99154.25
2023-01-12T14:18:21.169Z,99155.87
2023-01-12T14:20:56.776Z,99147.34
2023-01-12T14:23:25.162Z,99140.75
2023-01-12T14:26:10.569Z,99141.69
2023-01-12T14:28:39.299Z,99143.97
2023-01-12T14:31:08.605Z,99132.81
2023-01-12T14:33:37.771Z,99136.69
2023-01-12T14:36:07.221Z,99144.22
2023-01-12T14:38:35.159Z,99142.63
2023-01-12T14:41:05.731Z,99142.44
2023-01-12T14:43:52.520Z,99134.38
2023-01-12T14:46:31.403Z,99136.66
2023-01-12T14:48:58.371Z,99137.13
2023-01-12T14:51:36.414Z,99132.56
2023-01-12T14:54:03.526Z,99141.44
2023-01-12T14:56:50.217Z,99134.31
2023-01-12T14:59:22.752Z,99136.12
2023-01-12T15:01:52.889Z,99141.09
2023-01-12T15:04:22.865Z,99129.50
2023-01-12T15:07:20.414Z,99137.72
2023-01-12T15:10:09.522Z,99143.31
2023-01-12T15:12:53.831Z,99137.47
2023-01-12T15:15:49.420Z,99135.25
2023-01-12T15:18:35.539Z,99136.62
2023-01-12T15:21:22.619Z,99129.34
2023-01-12T15:24:08.742Z,99132.34
2023-01-12T15:26:35.960Z,99135.34
2023-01-12T15:29:03.390Z,99129.78
2023-01-12T15:31:35.053Z,99136.59
2023-01-12T15:34:02.600Z,99131.97
2023-01-12T15:36:30.141Z,99128.88
2023-01-12T15:38:57.423Z,99133.91
2023-01-12T15:41:47.967Z,99137.34
2023-01-12T15:44:17.539Z,99134.44
2023-01-12T15:46:44.912Z,99132.41
2023-01-12T15:49:14.054Z,99138.97
2023-01-12T15:51:46.716Z,99138.16
2023-01-12T15:54:14.102Z,99136.47
2023-01-12T15:56:41.757Z,99134.25
2023-01-12T15:59:09.231Z,99131.19
2023-01-12T16:01:45.808Z,99134.22
2023-01-12T16:04:42.243Z,99137.53
2023-01-12T16:07:05.673Z,99139.63
2023-01-12T16:09:33.019Z,99155.06
2023-01-12T16:12:00.121Z,99153.00
2023-01-12T16:14:27.725Z,99147.37
2023-01-12T16:16:55.784Z,99153.25
2023-01-12T16:19:23.666Z,99149.41
2023-01-12T16:21:51.071Z,99152.25
2023-01-12T16:24:18.503Z,99146.34
2023-01-12T16:26:46.441Z,99144.91
2023-01-12T16:29:13.546Z,99149.78
2023-01-12T16:31:40.991Z,99153.44
2023-01-12T16:34:08.119Z,99143.41
2023-01-12T16:36:35.411Z,99148.84
2023-01-12T16:39:02.809Z,99145.56
2023-01-12T16:41:30.198Z,99139.72
2023-01-12T16:43:58.452Z,99148.81
2023-01-12T16:46:25.873Z,99153.31
2023-01-12T16:48:55.466Z,99156.97
2023-01-12T16:51:23.048Z,99157.28
2023-01-12T16:53:51.541Z,99151.06
2023-01-12T16:56:18.704Z,99153.72
2023-01-12T16:58:48.540Z,99152.91
2023-01-12T17:01:18.970Z,99148.31
2023-01-12T17:03:46.198Z,99159.12
2023-01-12T17:06:17.072Z,99144.47
2023-01-12T17:08:44.520Z,99148.75
2023-01-12T17:11:13.349Z,99153.25
2023-01-12T17:13:40.592Z,99149.91
2023-01-12T17:16:10.047Z,99150.16
2023-01-12T17:18:38.284Z,99152.09
2023-01-12T17:21:09.071Z,99144.72
2023-01-12T17:23:39.372Z,99151.88
2023-01-12T17:26:08.241Z,99146.28
2023-01-12T17:28:35.436Z,99149.03
2023-01-12T17:31:10.386Z,99149.19
2023-01-12T17:33:38.716Z,99150.19
2023-01-12T17:36:07.478Z,99142.88
2023-01-12T17:38:35.616Z,99139.97
2023-01-12T17:41:34.398Z,99141.66
2023-01-12T17:44:05.344Z,99146.75
2023-01-12T17:46:33.054Z,99153.56
2023-01-12T17:49:02.168Z,99146.75
2023-01-12T17:51:29.603Z,99148.06
2023-01-12T17:54:01.584Z,99150.66
2023-01-12T17:56:31.419Z,99162.59
2023-01-12T17:58:59.625Z,99158.50
2023-01-12T18:01:29.303Z,99154.69
2023-01-12T18:03:58.345Z,99156.53
2023-01-12T18:06:27.136Z,99157.47
2023-01-12T18:09:01.808Z,99149.78
2023-01-12T18:11:31.274Z,99152.44
2023-01-12T18:13:59.469Z,99150.66
2023-01-12T18:16:26.742Z,99155.44
2023-01-12T18:18:54.377Z,99147.25
2023-01-12T18:21:24.027Z,99148.37
2023-01-12T18:23:51.763Z,99149.06
2023-01-12T18:26:26.253Z,99145.38
2023-01-12T18:28:54.609Z,99143.19
2023-01-12T18:31:25.709Z,99151.53
2023-01-12T18:33:59.299Z,99152.47
2023-01-12T18:36:26.658Z,99151.78
2023-01-12T18:38:55.247Z,99156.31
2023-01-12T18:41:42.487Z,99152.03
2023-01-12T18:44:10.521Z,99145.84
2023-01-12T18:47:01.268Z,99148.44
2023-01-12T18:49:31.099Z,99149.03
2023-01-12T18:52:17.477Z,99155.97
2023-01-12T18:54:47.380Z,99155.87
2023-01-12T18:57:19.104Z,99156.38
2023-01-12T18:59:47.553Z,99146.84
2023-01-12T19:02:15.972Z,99141.31
2023-01-12T19:04:43.356Z,99142.50
2023-01-12T19:07:12.959Z,99144.16
2023-01-12T19:09:40.074Z,99143.81
2023-01-12T19:12:07.177Z,99145.50
2023-01-12T19:14:54.379Z,99139.87
2023-01-12T19:17:27.076Z,99141.91
2023-01-12T19:19:55.606Z,99132.63
2023-01-12T19:22:41.424Z,99132.09
2023-01-12T19:25:30.926Z,99136.84
2023-01-12T19:28:17.382Z,99128.53
2023-01-12T19:30:46.629Z,99128.44
2023-01-12T19:33:17.314Z,99113.22
2023-01-12T19:35:45.939Z,99106.53
2023-01-12T19:38:14.466Z,99108.84
2023-01-12T19:40:53.614Z,99100.47
2023-01-12T19:43:26.144Z,99105.25
2023-01-12T19:45:58.205Z,99103.03
2023-01-12T19:48:26.770Z,99104.09
2023-01-12T19:50:54.334Z,99101.94
2023-01-12T19:53:25.871Z,99098.34
2023-01-12T19:55:53.901Z,99093.66
2023-01-12T19:58:25.025Z,99092.22
2023-01-12T20:00:54.716Z,99093.75
2023-01-12T20:03:23.853Z,99094.91
2023-01-12T20:05:51.930Z,99096.50
2023-01-12T20:08:20.733Z,99094.00
2023-01-12T20:10:59.434Z,99099.09
2023-01-12T20:13:27.333Z,99104.63
2023-01-12T20:15:56.812Z,99100.47
2023-01-12T20:18:24.395Z,99098.78
2023-01-12T20:20:54.162Z,99099.28
2023-01-12T20:23:21.563Z,99101.87
2023-01-12T20:25:48.643Z,99102.88
2023-01-12T20:28:15.740Z,99109.87
2023-01-12T20:30:43.519Z,99110.31
2023-01-12T20:33:11.171Z,99120.09
2023-01-12T20:35:42.203Z,99118.66
2023-01-12T20:38:15.499Z,99114.66
2023-01-12T20:40:44.461Z,99118.09
2023-01-12T20:43:11.882Z,99118.00
2023-01-12T20:45:40.528Z,99110.06
2023-01-12T20:48:07.671Z,99117.41
2023-01-12T20:50:35.074Z,99121.12
2023-01-12T20:53:02.085Z,99113.28
2023-01-12T20:55:29.394Z,99115.81
2023-01-12T20:57:56.857Z,99110.38
2023-01-12T21:00:24.295Z,99112.72
2023-01-12T21:02:51.308Z,99115.75
2023-01-12T21:05:18.625Z,99107.13
2023-01-12T21:07:47.489Z,99104.47
2023-01-12T21:10:15.935Z,99111.72
2023-01-12T21:12:43.542Z,99108.47
2023-01-12T21:15:13.464Z,99110.91
2023-01-12T21:17:41.133Z,99113.16
2023-01-12T21:20:09.527Z,99113.50
2023-01-12T21:22:36.836Z,99117.81
2023-01-12T21:25:05.088Z,99121.44
2023-01-12T21:27:33.467Z,99114.91
2023-01-12T21:30:00.508Z,99104.09
2023-01-12T21:32:28.852Z,99105.94
2023-01-12T21:34:57.006Z,99105.19
2023-01-12T21:37:24.140Z,99108.03
2023-01-12T21:39:53.326Z,99110.91
2023-01-12T21:42:39.624Z,99111.22
2023-01-12T21:45:07.068Z,99105.72
2023-01-12T21:47:34.342Z,99105.72
2023-01-12T21:50:01.461Z,99105.72
2023-01-12T21:52:32.933Z,99106.03
2023-01-12T21:55:00.387Z,99109.66
2023-01-12T21:57:27.434Z,99096.00
2023-01-12T21:59:54.538Z,99092.34
2023-01-12T22:02:22.036Z,99091.72
2023-01-12T22:04:49.393Z,99091.56
2023-01-12T22:07:16.522Z,99092.63
2023-01-12T22:09:43.583Z,99092.47
2023-01-12T22:12:10.951Z,99091.41
2023-01-12T22:14:38.052Z,99102.53
2023-01-12T22:17:05.330Z,99093.75
2023-01-12T22:19:32.813Z,99093.00
2023-01-12T22:22:00.136Z,99087.75
2023-01-12T22:24:27.358Z,99085.84
2023-01-12T22:26:54.907Z,99091.09
2023-01-12T22:29:22.063Z,99090.19
2023-01-12T22:31:49.168Z,99089.19
2023-01-12T22:34:17.008Z,99086.53
2023-01-12T22:36:44.010Z,99086.06
2023-01-12T22:39:11.752Z,99082.00
2023-01-12T22:41:41.910Z,99073.47
2023-01-12T22:44:09.019Z,99080.31
2023-01-12T22:46:36.948Z,99074.38
2023-01-12T22:49:04.386Z,99077.19
2023-01-12T22:51:31.709Z,99070.59
2023-01-12T22:53:58.850Z,99063.75
2023-01-12T22:56:26.362Z,99060.25
2023-01-12T22:58:55.080Z,99057.69
2023-01-12T23:01:23.418Z,99063.91
2023-01-12T23:03:55.911Z,99058.75
2023-01-12T23:06:25.094Z,99059.06
2023-01-12T23:08:52.652Z,99059.22
2023-01-12T23:11:25.283Z,99057.53
2023-01-12T23:13:54.853Z,99060.12
2023-01-12T23:16:22.489Z,99060.94
2023-01-12T23:18:50.387Z,99067.12
2023-01-12T23:21:27.827Z,99062.19
2023-01-12T23:23:59.433Z,99071.91
2023-01-12T23:26:31.104Z,99072.13
2023-01-12T23:29:00.360Z,99068.81
2023-01-12T23:31:30.353Z,99066.38
2023-01-12T23:33:57.890Z,99069.13
2023-01-12T23:36:26.468Z,99073.66
2023-01-12T23:38:58.522Z,99075.72
2023-01-12T23:41:27.545Z,99068.88
2023-01-12T23:43:57.186Z,99075.94
2023-01-12T23:46:24.637Z,99066.59
2023-01-12T23:48:54.157Z,99075.50
2023-01-12T23:51:23.116Z,99070.44
2023-01-12T23:53:59.305Z,99066.22
2023-01-12T23:56:28.923Z,99074.88
2023-01-12T23:58:56.213Z,99067.34
